METAR Data
IDs: Format: Raw Decoded Include TAF

Data at: 2038 UTC 25 Oct 2021

EDSB 252020Z 18004KT CAVOK 09/08 Q1020